MST,Max TemperatureF,Mean TemperatureF,Min TemperatureF,Max Dew PointF,MeanDew PointF,Min DewpointF,Max Humidity, Mean Humidity, Min Humidity, Max Sea Level PressureIn, Mean Sea Level PressureIn, Min Sea Level PressureIn, Max VisibilityMiles, Mean VisibilityMiles, Min VisibilityMiles, Max Wind SpeedMPH, Mean Wind SpeedMPH, Max Gust SpeedMPH,PrecipitationIn, CloudCover, Events, WindDirDegrees
2012-2-1,48,34,21,19,17,14,80,51,25,30.33,30.26,30.14,10,10,10,13,10,18,0.00,0,,167
2012-2-2,35,30,24,28,23,18,93,74,48,30.10,30.02,29.96,10,9,0,15,6,20,0.07,6,,297
2012-2-3,39,26,14,25,19,10,93,73,42,30.19,30.12,30.06,10,10,10,16,4,21,0.01,3,,99
2012-2-4,42,30,19,21,17,14,93,61,31,30.23,30.20,30.16,10,10,10,14,5,24,0.00,0,,130
2012-2-5,46,32,19,23,19,16,86,60,32,30.21,30.18,30.12,10,10,10,12,5,,0.00,2,,126
2012-2-6,44,30,15,23,14,3,93,60,23,30.17,30.15,30.13,10,10,10,10,6,16,0.00,0,,157
2012-2-7,44,34,24,12,10,7,54,39,23,30.21,30.19,30.16,10,10,10,17,8,24,0.00,2,,137
2012-2-8,53,43,33,25,20,14,48,40,30,30.32,30.25,30.21,10,10,10,13,8,17,0.00,5,,161
2012-2-9,55,39,23,27,18,14,86,53,20,30.37,30.34,30.31,10,10,10,16,6,22,0.00,0,,22
2012-2-10,57,40,23,25,19,12,86,53,18,30.36,30.33,30.27,10,10,10,13,7,16,0.00,0,,193
2012-2-11,53,40,26,21,17,14,69,40,21,30.25,30.10,29.97,10,10,10,22,12,36,0.00,0,,170
2012-2-12,41,36,32,32,25,19,100,65,42,29.97,29.93,29.89,10,9,0,17,11,23,0.00,5,,207
2012-2-13,39,36,32,30,28,27,87,79,65,30.00,29.96,29.85,10,10,10,24,13,36,0.00,4,,193
2012-2-14,33,28,24,27,22,16,93,74,48,29.98,29.87,29.81,10,9,1,23,13,33,0.00,5,,250
2012-2-15,33,24,15,25,20,14,93,83,65,30.04,30.02,29.98,10,10,10,18,6,24,0.00,4,,150
2012-2-16,44,30,17,25,20,16,93,65,34,30.16,30.11,30.05,10,10,10,18,8,24,0.00,2,,92
2012-2-17,48,31,14,19,12,-2,93,49,15,30.22,30.18,30.15,10,10,10,12,3,17,0.00,0,,337
2012-2-18,50,32,15,18,11,5,79,47,16,30.21,30.16,30.08,10,10,10,15,9,23,0.00,0,,182
2012-2-19,37,34,28,32,24,18,93,72,55,30.06,29.95,29.90,10,8,0,21,10,26,0.00,4,,213
2012-2-20,44,28,12,18,9,0,93,56,15,30.19,30.13,30.07,10,10,10,14,4,22,0.00,0,,202
2012-2-21,53,34,15,16,8,0,79,43,12,30.29,30.25,30.20,10,10,10,12,6,,0.01,0,,194
2012-2-22,55,39,23,25,21,16,80,57,26,30.33,30.27,30.17,10,10,10,15,4,18,0.00,0,,290
2012-2-23,57,42,26,23,16,3,86,43,13,30.12,30.07,30.04,10,10,10,22,8,28,0.00,0,,315
2012-2-24,55,37,19,10,2,-2,58,26,12,30.31,30.25,30.18,10,10,10,13,5,16,0.00,0,,134
2012-2-25,57,40,24,14,11,3,51,28,16,30.28,30.19,30.09,10,10,10,18,9,29,0.00,0,,208
2012-2-26,53,35,17,16,6,-22,80,35,5,30.12,30.07,30.00,10,10,10,14,8,24,0.00,0,,168
2012-2-27,50,41,32,25,21,18,60,44,30,30.02,29.92,29.82,10,10,9,33,17,46,0.00,2,,180
2012-2-28,32,28,23,27,21,19,93,79,64,30.21,30.02,29.77,10,8,0,23,17,39,0.00,7,,209
2012-2-29,44,29,14,19,13,5,93,60,24,30.23,30.20,30.14,10,10,10,18,7,26,0.00,0,,174